CDT,Max TemperatureF,Mean TemperatureF,Min TemperatureF,Max Dew PointF,MeanDew PointF,Min DewpointF,Max Humidity, Mean Humidity, Min Humidity, Max Sea Level PressureIn, Mean Sea Level PressureIn, Min Sea Level PressureIn, Max VisibilityMiles, Mean VisibilityMiles, Min VisibilityMiles, Max Wind SpeedMPH, Mean Wind SpeedMPH, Max Gust SpeedMPH,PrecipitationIn, CloudCover, Events, WindDirDegrees
2013-8-1,99,88,77,77,73,68,94,69,39,30.04,29.99,29.90,10,9,4,14,6,,0.00,2,,206
2013-8-2,97,86,75,77,74,69,96,71,43,30.00,29.96,29.91,10,9,4,15,5,,0.00,2,,180
2013-8-3,98,86,75,76,74,71,94,70,43,30.05,30.00,29.95,10,10,10,16,6,16,0.00,1,,172
2013-8-4,96,86,78,78,75,73,94,75,51,30.09,30.03,29.98,10,9,2,16,6,22,0.20,2,Rain,173
2013-8-5,100,87,75,77,74,69,97,69,39,30.06,30.01,29.93,10,10,8,17,8,22,0.00,2,,198
2013-8-6,99,89,79,77,74,70,90,69,40,29.99,29.94,29.88,10,10,10,17,10,23,0.00,1,,191
2013-8-7,100,89,78,77,72,61,93,62,27,29.96,29.91,29.84,10,9,6,15,9,21,0.00,3,,192
2013-8-8,100,86,73,77,72,64,100,64,31,29.95,29.89,29.83,10,9,2,17,7,26,0.00,4,,180
2013-8-9,99,85,72,78,73,69,100,72,39,29.98,29.93,29.87,10,8,2,14,3,,0.00,2,,147
2013-8-10,91,84,78,79,75,72,94,76,53,30.04,30.00,29.96,10,9,6,13,5,,0.01,1,Rain,107
2013-8-11,93,84,77,78,74,70,94,71,48,30.07,30.03,30.00,10,10,8,12,4,17,0.00,1,,131
2013-8-12,97,85,75,77,74,69,94,70,44,30.08,30.03,29.97,10,10,2,17,4,24,0.10,2,Rain-Thunderstorm,186
2013-8-13,100,88,77,77,72,65,96,65,31,30.05,29.98,29.89,10,10,10,15,6,20,0.00,1,,204
2013-8-14,102,88,75,77,73,64,96,72,31,30.00,29.95,29.86,10,10,8,16,7,28,0.11,2,Rain-Thunderstorm,220
2013-8-15,93,83,75,74,71,64,94,74,41,30.03,29.97,29.92,10,10,9,8,4,,0.01,4,Rain,53
2013-8-16,98,84,72,75,71,67,97,74,37,30.01,29.95,29.87,10,9,2,20,2,33,0.01,3,Rain,97
2013-8-17,95,83,73,71,65,56,93,63,29,30.02,29.97,29.91,10,10,7,15,6,18,0.00,0,,34
2013-8-18,95,80,68,71,66,61,93,61,34,30.04,29.99,29.97,10,10,10,10,5,,0.00,0,,78
2013-8-19,95,82,70,72,67,60,97,64,32,30.05,29.99,29.93,10,9,6,10,4,17,0.00,0,,116
2013-8-20,87,79,72,73,71,69,93,78,61,30.04,30.00,29.97,10,10,8,10,3,,0.00,0,,138
2013-8-21,96,83,73,76,73,69,97,73,44,30.08,30.03,29.99,10,10,6,14,4,22,0.00,0,,116
2013-8-22,93,84,75,77,74,71,94,74,50,30.07,30.01,29.95,10,10,9,14,3,17,0.00,1,Rain,116
2013-8-23,97,84,73,75,72,69,97,70,41,30.02,29.96,29.89,10,10,9,13,4,17,0.00,1,,94
2013-8-24,97,86,75,75,72,68,91,67,39,30.02,29.98,29.94,10,10,9,13,4,17,0.00,1,,76
2013-8-25,87,82,78,77,74,72,88,77,65,30.08,30.04,30.00,10,10,10,17,9,22,0.05,6,Rain,68
2013-8-26,82,78,75,75,74,73,94,89,74,30.14,30.09,30.05,10,8,2,16,8,26,0.53,6,Rain,104
2013-8-27,93,83,75,76,73,70,94,82,50,30.13,30.07,30.04,10,9,2,10,4,16,0.27,4,Rain-Thunderstorm,93
2013-8-28,93,83,73,76,71,68,97,74,47,30.11,30.04,29.99,10,8,2,12,2,,0.01,1,,159
2013-8-29,99,86,73,77,72,63,94,68,31,30.09,30.02,29.94,10,10,6,12,3,21,0.00,2,,209
2013-8-30,97,86,77,77,74,71,94,75,46,30.04,29.98,29.90,10,9,6,17,4,,0.00,2,,175
2013-8-31,95,83,73,74,72,69,93,69,44,29.96,29.91,29.84,10,9,6,13,5,,0.00,0,,175